Time;durP1;ratioP1;P1;durP2;ratioP2;P2;SDS_P1;SDS_P2;PMS_P1;PMS_P2;Temp;Humidity;BMP_temperature;BMP_pressure;BME280_temperature;BME280_humidity;BME280_pressure;Samples;Min_cycle;Max_cycle;Signal;HPM_P1;HPM_P2
2021/08/06 17:44:43;;;;;;;6.80;2.80;;;26.80;99.90;;;;;;5810082;23;21618;-78
2021/08/06 17:47:08;;;;;;;5.78;2.75;;;26.80;99.90;;;;;;4878714;29;20379;-80
2021/08/06 17:49:34;;;;;;;7.95;2.83;;;26.70;99.90;;;;;;4878924;29;20033;-79
2021/08/06 17:52:01;;;;;;;6.55;2.83;;;26.70;99.90;;;;;;4878950;29;20048;-77
2021/08/06 17:54:27;;;;;;;8.60;3.25;;;26.60;99.90;;;;;;4878657;29;20109;-79
2021/08/06 17:56:52;;;;;;;13.00;4.03;;;26.60;99.90;;;;;;4893203;29;20116;-79
2021/08/06 17:59:18;;;;;;;6.70;2.83;;;26.60;99.90;;;;;;4878961;29;20021;-78
2021/08/06 18:01:43;;;;;;;9.45;2.95;;;26.50;99.90;;;;;;4878606;29;20064;-81
2021/08/06 18:04:09;;;;;;;10.35;3.00;;;26.50;99.90;;;;;;4878978;29;20376;-81
2021/08/06 18:06:35;;;;;;;11.45;3.00;;;26.40;99.90;;;;;;4878877;29;20085;-81
2021/08/06 18:09:01;;;;;;;11.27;2.88;;;26.40;99.90;;;;;;4878567;29;20390;-82
2021/08/06 18:11:26;;;;;;;12.23;2.80;;;26.30;99.90;;;;;;4878779;29;20541;-78
2021/08/06 18:13:52;;;;;;;16.30;3.83;;;26.30;99.90;;;;;;4878763;29;20394;-78
2021/08/06 18:16:18;;;;;;;12.73;4.10;;;26.30;99.90;;;;;;4878959;29;20025;-81
2021/08/06 18:18:43;;;;;;;6.70;2.90;;;26.20;99.90;;;;;;4877314;29;20037;-79
2021/08/06 18:21:09;;;;;;;9.02;2.90;;;26.20;99.90;;;;;;4878634;29;20116;-79
2021/08/06 18:23:35;;;;;;;8.48;3.42;;;26.20;99.90;;;;;;4878515;29;20089;-81
2021/08/06 18:26:01;;;;;;;6.30;2.95;;;26.10;99.90;;;;;;4878735;29;20029;-79
2021/08/06 18:28:28;;;;;;;15.60;5.00;;;26.10;99.90;;;;;;4878779;29;20189;-82
2021/08/06 18:30:55;;;;;;;16.10;4.35;;;26.00;99.90;;;;;;4878633;29;20482;-79
2021/08/06 18:33:22;;;;;;;18.45;5.78;;;26.00;99.90;;;;;;4878522;29;20048;-80
2021/08/06 18:35:48;;;;;;;10.35;5.22;;;26.00;99.90;;;;;;4878568;29;20029;-78
2021/08/06 18:38:13;;;;;;;11.23;3.63;;;26.00;99.90;;;;;;4878698;29;20112;-79
2021/08/06 18:40:40;;;;;;;9.70;3.70;;;25.90;99.90;;;;;;4878484;29;20128;-79
2021/08/06 18:43:06;;;;;;;12.57;3.53;;;25.90;99.90;;;;;;4878052;29;20060;-79
2021/08/06 18:45:32;;;;;;;7.15;3.33;;;25.90;99.90;;;;;;4878167;29;20093;-82
2021/08/06 18:47:59;;;;;;;8.32;4.97;;;25.90;99.90;;;;;;4879125;29;20530;-79
2021/08/06 18:50:30;;;;;;;15.10;4.38;;;25.80;99.90;;;;;;4878784;29;20040;-82
2021/08/06 18:52:56;;;;;;;13.50;3.92;;;25.80;99.90;;;;;;4879546;29;20460;-79
2021/08/06 18:55:22;;;;;;;13.32;3.88;;;25.80;99.90;;;;;;4881604;29;20108;-78
2021/08/06 18:57:48;;;;;;;17.05;6.00;;;25.80;99.90;;;;;;4881911;29;20075;-79
2021/08/06 19:00:14;;;;;;;15.38;6.10;;;25.80;99.90;;;;;;4881444;29;20083;-78
2021/08/06 19:02:40;;;;;;;15.32;6.40;;;25.70;99.90;;;;;;4881611;29;20415;-79
2021/08/06 19:05:07;;;;;;;12.68;5.18;;;25.70;99.90;;;;;;4881670;29;20033;-81
2021/08/06 19:07:33;;;;;;;18.60;4.90;;;25.70;99.90;;;;;;4881483;29;20041;-81
2021/08/06 19:09:59;;;;;;;12.30;4.85;;;25.60;99.90;;;;;;4881257;29;20368;-78
2021/08/06 19:12:25;;;;;;;9.40;3.65;;;25.60;99.90;;;;;;4881378;29;20057;-81
2021/08/06 19:14:51;;;;;;;16.52;5.28;;;25.60;99.90;;;;;;4881730;29;20033;-79
2021/08/06 19:17:17;;;;;;;22.40;6.25;;;25.60;99.90;;;;;;4881369;29;20109;-80
2021/08/06 19:19:43;;;;;;;12.95;6.07;;;25.60;99.90;;;;;;4881703;29;20063;-81
2021/08/06 19:22:13;;;;;;;17.55;6.70;;;25.50;99.90;;;;;;4880928;29;20033;-79
2021/08/06 19:24:43;;;;;;;14.57;6.00;;;25.50;99.90;;;;;;4881295;29;20044;-82
2021/08/06 19:27:09;;;;;;;13.95;5.75;;;25.50;99.90;;;;;;4864352;29;20403;-79
2021/08/06 19:29:37;;;;;;;21.30;5.88;;;25.40;99.90;;;;;;4881341;29;20112;-79
2021/08/06 19:32:05;;;;;;;9.45;4.05;;;25.40;99.90;;;;;;4880993;29;20452;-78
2021/08/06 19:34:31;;;;;;;14.43;4.82;;;25.30;99.90;;;;;;4881182;29;20036;-81
2021/08/06 19:36:57;;;;;;;10.20;4.20;;;25.30;99.90;;;;;;4880912;29;20065;-79
2021/08/06 19:39:25;;;;;;;11.98;4.03;;;25.30;99.90;;;;;;4880593;29;20064;-79
2021/08/06 19:41:58;;;;;;;16.73;4.20;;;25.20;99.90;;;;;;4880907;29;20040;-79
2021/08/06 19:44:24;;;;;;;13.80;4.75;;;25.20;99.90;;;;;;4880794;29;20484;-78
2021/08/06 19:46:50;;;;;;;12.95;4.15;;;25.20;99.90;;;;;;4880771;29;20061;-80
2021/08/06 19:49:20;;;;;;;18.35;4.30;;;25.10;99.90;;;;;;4880913;29;20499;-79
2021/08/06 19:51:51;;;;;;;9.23;3.65;;;25.10;99.90;;;;;;4880859;29;20029;-79
2021/08/06 19:54:18;;;;;;;13.82;3.83;;;25.10;99.90;;;;;;4879690;29;20140;-80
2021/08/06 19:56:44;;;;;;;9.07;4.65;;;25.10;99.90;;;;;;4880774;29;20111;-79
2021/08/06 19:59:10;;;;;;;9.25;3.97;;;25.00;99.90;;;;;;4879596;29;20048;-79
2021/08/06 20:01:37;;;;;;;14.05;3.72;;;25.00;99.90;;;;;;4880384;29;20490;-79
2021/08/06 20:04:03;;;;;;;14.38;5.32;;;24.90;99.90;;;;;;4879501;29;20502;-79
2021/08/06 20:06:29;;;;;;;12.30;4.82;;;24.90;99.90;;;;;;4880637;29;20073;-82
2021/08/06 20:08:54;;;;;;;16.23;4.10;;;24.80;99.90;;;;;;4880702;29;20120;-81
2021/08/06 20:11:20;;;;;;;12.20;4.63;;;24.80;99.90;;;;;;4880824;29;20032;-79
2021/08/06 20:13:47;;;;;;;14.98;4.32;;;24.70;99.90;;;;;;4878853;29;20033;-78
2021/08/06 20:16:13;;;;;;;12.02;4.65;;;24.70;99.90;;;;;;4880553;29;20065;-81
2021/08/06 20:18:39;;;;;;;10.45;4.47;;;24.60;99.90;;;;;;4880164;29;20065;-78
2021/08/06 20:21:05;;;;;;;13.93;5.03;;;24.50;99.90;;;;;;4880386;29;20029;-79
2021/08/06 20:23:37;;;;;;;16.00;4.25;;;24.50;99.90;;;;;;4879976;29;20064;-79
2021/08/06 20:26:04;;;;;;;9.70;3.55;;;24.50;99.90;;;;;;4880361;29;20025;-79
2021/08/06 20:28:30;;;;;;;15.25;4.20;;;24.40;99.90;;;;;;4880053;29;20039;-81
2021/08/06 20:30:56;;;;;;;8.82;4.30;;;24.40;99.90;;;;;;4880643;29;20386;-78
2021/08/06 20:33:21;;;;;;;16.00;3.63;;;24.40;99.90;;;;;;4880335;29;20108;-78
2021/08/06 20:35:47;;;;;;;10.52;4.07;;;24.40;99.90;;;;;;4880008;29;20035;-81
2021/08/06 20:38:12;;;;;;;16.17;3.25;;;24.30;99.90;;;;;;4878907;29;20057;-81
2021/08/06 20:40:38;;;;;;;6.95;2.75;;;24.30;99.90;;;;;;4879987;29;20474;-82
2021/08/06 20:43:04;;;;;;;8.60;3.85;;;24.30;99.90;;;;;;4879699;29;20033;-80
2021/08/06 20:45:29;;;;;;;8.95;3.30;;;24.20;99.90;;;;;;4879425;29;20049;-79
2021/08/06 20:47:55;;;;;;;15.07;3.50;;;24.10;99.90;;;;;;4880145;29;20093;-78
2021/08/06 20:50:21;;;;;;;14.63;4.05;;;24.10;99.90;;;;;;4880030;29;20029;-79
2021/08/06 20:52:47;;;;;;;11.50;3.42;;;24.00;99.90;;;;;;4879500;29;20107;-78
2021/08/06 20:55:13;;;;;;;7.25;2.83;;;24.00;99.90;;;;;;4879953;29;20530;-81
2021/08/06 20:57:39;;;;;;;6.45;3.05;;;24.00;99.90;;;;;;4879761;29;20390;-78
2021/08/06 21:00:05;;;;;;;9.20;3.50;;;23.90;99.90;;;;;;4879615;29;20179;-80
2021/08/06 21:02:31;;;;;;;6.68;2.78;;;23.90;99.90;;;;;;4879663;29;20414;-81
2021/08/06 21:04:56;;;;;;;10.00;2.60;;;23.90;99.90;;;;;;4893646;29;20047;-78
2021/08/06 21:07:22;;;;;;;11.45;3.20;;;23.90;99.90;;;;;;4879208;29;20039;-81
2021/08/06 21:09:48;;;;;;;8.85;3.50;;;23.90;99.90;;;;;;4878902;29;20344;-79
2021/08/06 21:12:13;;;;;;;8.90;2.63;;;23.80;99.90;;;;;;4862060;29;20085;-81
2021/08/06 21:14:40;;;;;;;10.05;3.20;;;23.80;99.90;;;;;;4878330;29;20386;-79
2021/08/06 21:17:06;;;;;;;8.68;2.97;;;23.80;99.90;;;;;;4878378;29;20070;-82
2021/08/06 21:19:31;;;;;;;7.50;3.00;;;23.80;99.90;;;;;;4878582;29;20433;-78
2021/08/06 21:21:57;;;;;;;13.40;4.38;;;23.80;99.90;;;;;;4878214;29;20045;-79
2021/08/06 21:24:24;;;;;;;23.63;2.60;;;23.80;99.90;;;;;;4879837;29;20033;-81
2021/08/06 21:26:50;;;;;;;10.50;2.92;;;23.70;99.90;;;;;;4878075;29;20036;-82
2021/08/06 21:29:19;;;;;;;14.73;3.17;;;23.70;99.90;;;;;;4879558;29;20041;-80
2021/08/06 21:31:45;;;;;;;6.18;2.65;;;23.70;99.90;;;;;;4879389;29;20456;-78
2021/08/06 21:34:10;;;;;;;6.20;2.47;;;23.70;99.90;;;;;;4879325;29;20037;-80
2021/08/06 21:36:36;;;;;;;4.60;2.65;;;23.60;99.90;;;;;;4879243;29;20030;-80
2021/08/06 21:39:05;;;;;;;7.22;2.70;;;23.60;99.90;;;;;;4879217;29;20029;-78
2021/08/06 21:41:32;;;;;;;7.85;2.92;;;23.60;99.90;;;;;;4879176;29;20066;-78
2021/08/06 21:43:58;;;;;;;10.52;3.28;;;23.60;99.90;;;;;;4878637;29;20064;-78
2021/08/06 21:46:24;;;;;;;7.38;2.80;;;23.50;99.90;;;;;;4878918;29;20045;-81
2021/08/06 21:48:49;;;;;;;9.95;2.55;;;23.50;99.90;;;;;;4878869;29;20037;-81
2021/08/06 21:51:16;;;;;;;7.18;2.80;;;23.40;99.90;;;;;;4878636;29;20048;-79
2021/08/06 21:53:41;;;;;;;9.10;2.83;;;23.30;99.90;;;;;;4878812;29;20044;-78
2021/08/06 21:56:07;;;;;;;7.95;2.63;;;23.30;99.90;;;;;;4878863;29;20045;-78
2021/08/06 21:58:33;;;;;;;9.88;3.03;;;23.30;99.90;;;;;;4878926;29;20040;-79
2021/08/06 22:00:58;;;;;;;12.35;3.00;;;23.30;99.90;;;;;;4879005;29;20038;-80
2021/08/06 22:03:24;;;;;;;13.43;3.38;;;23.30;99.90;;;;;;4878546;29;20060;-82
2021/08/06 22:05:49;;;;;;;14.52;3.00;;;23.30;99.90;;;;;;4878726;29;20036;-78
2021/08/06 22:08:15;;;;;;;6.85;2.80;;;23.30;99.90;;;;;;4878881;29;20116;-78
2021/08/06 22:10:41;;;;;;;17.83;4.30;;;23.30;99.90;;;;;;4878969;29;20435;-78
2021/08/06 22:13:06;;;;;;;11.00;2.85;;;23.30;99.90;;;;;;4878896;29;20041;-79
2021/08/06 22:15:32;;;;;;;10.65;3.80;;;23.30;99.90;;;;;;4878687;29;20029;-79
2021/08/06 22:17:58;;;;;;;8.40;2.80;;;23.30;99.90;;;;;;4877488;29;20048;-78
2021/08/06 22:20:24;;;;;;;8.48;2.75;;;23.30;99.90;;;;;;4878724;29;20471;-82
2021/08/06 22:22:50;;;;;;;12.63;3.45;;;23.30;99.90;;;;;;4878630;29;20133;-78
2021/08/06 22:25:16;;;;;;;10.20;3.05;;;23.30;99.90;;;;;;4877158;29;20063;-82
2021/08/06 22:27:42;;;;;;;6.20;3.15;;;23.20;99.90;;;;;;4880065;29;20094;-81
2021/08/06 22:30:08;;;;;;;6.95;2.95;;;23.20;99.90;;;;;;4882305;29;20037;-78
2021/08/06 22:32:34;;;;;;;7.32;3.53;;;23.20;99.90;;;;;;4882196;29;20053;-81
2021/08/06 22:35:00;;;;;;;14.82;3.22;;;23.10;99.90;;;;;;4882700;29;20037;-79
2021/08/06 22:37:25;;;;;;;12.52;3.60;;;23.10;99.90;;;;;;4881848;29;20021;-81
2021/08/06 22:39:51;;;;;;;11.25;3.35;;;23.00;99.90;;;;;;4882801;29;20064;-82
2021/08/06 22:42:17;;;;;;;10.48;3.30;;;23.00;99.90;;;;;;4882105;29;20037;-81
2021/08/06 22:44:42;;;;;;;9.27;3.22;;;23.00;99.90;;;;;;4881783;29;20045;-81
2021/08/06 22:47:08;;;;;;;9.80;2.90;;;23.00;99.90;;;;;;4881878;29;20112;-81
2021/08/06 22:49:34;;;;;;;10.77;3.35;;;23.00;99.90;;;;;;4882021;29;20052;-82
2021/08/06 22:51:59;;;;;;;5.53;3.00;;;22.90;99.90;;;;;;4881915;29;20029;-80
2021/08/06 22:54:25;;;;;;;13.45;3.60;;;22.90;99.90;;;;;;4881691;29;20064;-82
2021/08/06 22:56:51;;;;;;;8.63;3.25;;;22.90;99.90;;;;;;4881733;29;20144;-81
2021/08/06 22:59:16;;;;;;;11.52;3.40;;;22.80;99.90;;;;;;4881888;29;20587;-81
2021/08/06 23:01:42;;;;;;;10.98;3.17;;;22.90;99.90;;;;;;4881596;29;20025;-78
2021/08/06 23:04:07;;;;;;;9.10;3.17;;;22.90;99.90;;;;;;4881711;29;20037;-79
2021/08/06 23:06:33;;;;;;;6.78;3.05;;;22.80;99.90;;;;;;4881525;29;20535;-82
2021/08/06 23:08:59;;;;;;;14.43;3.17;;;22.80;99.90;;;;;;4881371;29;20084;-79
2021/08/06 23:11:24;;;;;;;12.70;3.85;;;22.80;99.90;;;;;;4881447;29;20040;-78
2021/08/06 23:13:50;;;;;;;7.40;3.42;;;22.80;99.90;;;;;;4881463;29;20033;-79
2021/08/06 23:16:16;;;;;;;10.27;3.53;;;22.80;99.90;;;;;;4881711;29;20530;-80
2021/08/06 23:18:41;;;;;;;13.32;3.35;;;22.80;99.90;;;;;;4881397;29;20092;-79
2021/08/06 23:21:07;;;;;;;11.15;2.67;;;22.80;99.90;;;;;;4881632;29;20111;-79
2021/08/06 23:23:33;;;;;;;11.82;3.60;;;22.70;99.90;;;;;;4881195;29;20049;-79
2021/08/06 23:25:58;;;;;;;8.93;3.30;;;22.70;99.90;;;;;;4880206;29;20045;-78
2021/08/06 23:28:24;;;;;;;9.27;3.55;;;22.70;99.90;;;;;;4880105;29;20037;-80
2021/08/06 23:30:50;;;;;;;12.27;3.47;;;22.70;99.90;;;;;;4880711;29;20032;-80
2021/08/06 23:33:16;;;;;;;9.48;3.10;;;22.70;99.90;;;;;;4881297;29;20036;-78
2021/08/06 23:35:42;;;;;;;11.10;3.28;;;22.70;99.90;;;;;;4881159;29;20025;-82
2021/08/06 23:38:10;;;;;;;9.93;3.15;;;22.70;99.90;;;;;;4881013;29;20066;-79
2021/08/06 23:40:37;;;;;;;18.45;4.00;;;22.60;99.90;;;;;;4880963;29;20033;-79
2021/08/06 23:43:04;;;;;;;17.90;3.20;;;22.60;99.90;;;;;;4881047;29;20052;-79
2021/08/06 23:45:29;;;;;;;15.38;3.45;;;22.60;99.90;;;;;;4880525;29;20520;-81
2021/08/06 23:47:56;;;;;;;17.17;4.45;;;22.60;99.90;;;;;;4880953;29;20108;-80
2021/08/06 23:50:22;;;;;;;11.25;3.53;;;22.70;99.90;;;;;;4881023;29;20116;-82
2021/08/06 23:52:47;;;;;;;8.50;3.67;;;22.60;99.90;;;;;;4880484;29;20043;-81
2021/08/06 23:55:13;;;;;;;19.98;3.55;;;22.50;99.90;;;;;;4880748;29;20034;-82
2021/08/06 23:57:39;;;;;;;15.43;4.00;;;22.50;99.90;;;;;;4880823;29;20037;-79
